Weather observations for the past three days for
Lumberton Municipal Airport
Metric (Imperial)
Date Time (edt) Wind (kph) Vis. (km) Weather Sky Cond. Temperature (ºC) Relative Humidity Wind Chill (°C) Heat Index (°C) Pressure Precipitation (cm)
Air Dwpt 6 hour altimeter (cm) sea level (mb) 1 hr 3 hr 6 hr
Max. Min.
06 01:56 Calm 16.09 Fair CLR 14.4 12.8 21.7 14.4 90% 76.2 1015.7
06 00:56 Vrbl 6 16.09 Fair CLR 15.6 13.3 86% 76.23 1016.0
05 23:56 Vrbl 6 16.09 Fair CLR 16.7 13.3 80% 76.25 1016.4
05 22:56 S 7 16.09 Fair CLR 17.8 13.3 75% 76.28 1016.8
05 21:56 S 11 16.09 Fair CLR 18.9 13.3 70% 76.25 1016.3
05 20:56 SE 17 16.09 Fair CLR 20 12.8 63% 76.2 1015.6
05 19:56 S 19 G 35 16.09 Fair CLR 21.7 12.2 27.8 21.7 55% 76.17 1015.3
05 18:56 S 19 G 37 16.09 Fair CLR 23.9 12.8 50% 25 76.15 1015.0
05 17:56 SE 22 G 35 16.09 Fair CLR 25.6 12.2 43% 26 76.12 1014.9
05 16:56 SE 19 G 33 16.09 A Few Clouds FEW060 26.7 11.7 39% 27 76.15 1015.0
05 15:56 SE 13 G 30 16.09 Mostly Cloudy BKN060 27.2 12.2 39% 27 76.17 1015.3
05 14:56 S 13 G 30 16.09 A Few Clouds FEW060 26.7 11.7 39% 27 76.25 1016.4
05 13:56 S 11 G 37 16.09 Partly Cloudy SCT050 25 11.7 26.1 13.9 43% 26 76.28 1016.9
05 12:56 S 11 G 30 16.09 Fair CLR 25.6 11.7 42% 26 76.3 1017.2
05 11:56 S 17 G 28 16.09 Fair CLR 24.4 12.2 47% 26 76.35 1017.9
05 10:56 SW 13 G 28 16.09 Fair CLR 22.8 12.2 51% 76.38 1018.1
05 09:56 SW 17 16.09 Fair CLR 21.1 12.8 59% 76.38 1018.1
05 08:56 S 13 16.09 Fair CLR 19.4 12.8 66% 76.35 1017.9
05 07:56 S 6 16.09 Fair CLR 13.9 11.1 14.4 9.4 83% 76.35 1017.7
05 06:56 Calm 16.09 Fair CLR 10 9.4 96% 76.33 1017.3
05 05:56 Calm 16.09 Fair CLR 10.6 9.4 92% 76.28 1016.7
05 04:56 Calm 16.09 Fair CLR 11.1 10 93% 76.25 1016.3
05 03:56 Calm 16.09 Fair CLR 11.1 9.4 89% 76.23 1016.1
05 02:56 Calm 16.09 Fair CLR 13.3 9.4 77% 76.23 1016.0
05 01:56 S 7 16.09 Fair CLR 14.4 9.4 21.1 14.4 72% 76.25 1016.3
05 00:56 S 9 16.09 Fair CLR 15.6 9.4 67% 76.28 1016.7
04 23:56 S 9 16.09 Fair CLR 16.7 9.4 62% 76.28 1016.7
04 22:56 S 15 16.09 Fair CLR 17.8 9.4 58% 76.28 1016.8
04 21:56 S 7 16.09 Fair CLR 17.8 9.4 58% 76.25 1016.6
04 20:56 S 9 16.09 Fair CLR 18.9 9.4 54% 76.2 1015.9
04 19:56 S 15 G 33 16.09 Fair CLR 21.1 10 26.7 21.1 49% 76.17 1015.3
04 18:56 S 24 G 39 16.09 Fair CLR 23.3 11.1 46% 76.1 1014.4
04 17:56 S 13 16.09 Fair CLR 25.6 6.1 29% 26 76.1 1014.3
04 16:56 S 15 16.09 Fair CLR 26.1 6.1 28% 26 76.1 1014.5
04 15:56 S 17 G 33 16.09 Fair CLR 26.1 6.1 28% 26 76.15 1015.0
04 14:56 SW 15 G 30 16.09 Fair CLR 25 5.6 29% 25 76.17 1015.6
04 13:56 S 17 G 31 16.09 Fair CLR 25 6.1 25 12.2 30% 25 76.25 1016.4
04 12:56 SW 7 16.09 Fair CLR 23.3 5.6 32% 76.28 1016.8
04 11:56 W 15 G 31 16.09 Fair CLR 22.8 6.7 35% 76.33 1017.4
04 10:56 SW 7 16.09 Fair CLR 21.1 8.9 46% 76.35 1017.8
04 09:56 SW 9 16.09 Fair CLR 18.3 10 59% 76.35 1017.7
04 08:56 SW 11 16.09 Fair CLR 16.1 10.6 70% 76.35 1017.9
04 07:56 Calm 16.09 Fair CLR 12.2 9.4 12.2 7.8 83% 76.35 1017.8
04 06:56 Calm 16.09 Fair CLR 7.8 7.8 100% 76.38 1018.1
04 05:56 E 6 16.09 Fair CLR 8.3 7.2 93% 76.35 1017.7
04 04:56 SE 6 16.09 Fair CLR 8.3 7.8 97% 76.35 1017.7
04 03:56 Calm 16.09 Fair CLR 10 7.8 86% 76.35 1017.8
04 02:56 Calm 16.09 Fair CLR 10 8.3 89% 76.35 1017.8
04 01:56 SW 7 16.09 Fair CLR 11.7 8.3 16.7 11.1 80% 76.38 1018.1
04 00:56 S 9 16.09 Fair CLR 11.7 8.3 80% 76.38 1018.2
03 23:56 S 9 16.09 Fair CLR 12.2 7.8 75% 76.38 1018.1
03 22:56 S 6 16.09 Fair CLR 12.2 6.7 69% 76.38 1018.0
03 21:56 S 6 16.09 Fair CLR 12.8 7.2 69% 76.33 1017.5
03 20:56 S 6 16.09 Fair CLR 12.8 8.3 74% 76.28 1016.9
03 19:56 S 6 16.09 Fair CLR 16.7 5 20.6 16.7 46% 76.25 1016.3
03 18:56 W 11 16.09 Fair CLR 20 3.3 33% 76.23 1016.2
03 17:56 W 17 16.09 Fair CLR 20 2.8 32% 76.23 1016.3
03 16:56 Vrbl 7 16.09 Fair CLR 20 2.8 32% 76.23 1016.1
03 15:56 W 15 G 26 16.09 Fair CLR 19.4 3.3 35% 76.28 1016.9
03 14:56 W 22 G 37 16.09 Fair CLR 18.9 3.3 36% 76.35 1017.8
03 13:56 NW 20 G 35 16.09 Fair CLR 18.3 3.9 18.3 9.4 39% 76.4 1018.6
03 12:56 W 13 16.09 Fair CLR 17.2 4.4 43% 76.48 1019.4
03 11:56 W 13 16.09 Fair CLR 15.6 3.3 44% 76.5 1020.1
03 10:56 N 17 16.09 Fair CLR 15 2.8 44% 76.5 1019.9
03 09:56 N 15 16.09 Fair CLR 13.3 3.9 53% 76.5 1019.9
03 08:56 N 11 16.09 Fair CLR 11.7 5 64% 76.5 1020.0
03 07:56 N 11 16.09 Fair CLR 9.4 3.9 9.4 5 69% 8 76.48 1019.5
03 06:56 NW 7 16.09 Fair CLR 6.1 5 93% 5 76.4 1018.4
03 05:56 Calm 12.87 Fair CLR 5.6 5 96% 76.3 1017.4
03 04:56 NW 6 9.66 Fog/Mist CLR 6.1 5.6 97% 76.28 1017.0
03 03:56 NW 7 8.05 Fog/Mist CLR 7.2 7.2 100% 6 76.23 1016.3
03 02:56 Calm 8.05 Fog/Mist CLR 7.2 7.2 100% 76.17 1015.7
Date Time (edt) Wind (kph) Vis. (km) Weather Sky Cond. Air Dwpt Max. Min. Relative Humidity Wind Chill (°C) Heat Index (°C) altimeter (cm) sea level (mb) 1 hr 3 hr 6 hr
6 hour
Temperature (ºC) Pressure Precipitation (cm)